15:07
Airports
Links
Donate
Help keep this website running!
PayPal
Bitcoin
METAR
SKMD 231500Z 36006KT 9999 SCT025 SCT100 23/16 A3017
Current Weather Conditions at SKMD
VFR 15:00:00 23-11-17
Altimeter:30.17 hg
Temp:23.0°c 73°f
Dew point:16.0°c 61°f
Wind:6 knots, 6.9 mph, 3 m/s, from 360°
Visibility:6.21 statute miles
10000(SCT) Scattered
2500(SCT) Scattered
Past METAR reports
VFR 14:00:00 23-11-17
Altimeter:30.19 hg
Temp:22.0°c 72°f
Dew point:16.0°c 61°f
Wind:0 knots, 0 mph, 0 m/s,
Variable direction
Visibility:6.21 statute miles
2500(FEW) A few
SKMD 231400Z 00000KT 9999 FEW025 22/16 A3019
VFR 13:00:00 23-11-17
Altimeter:30.18 hg
Temp:21.0°c 70°f
Dew point:17.0°c 63°f
Wind:0 knots, 0 mph, 0 m/s,
Variable direction
Visibility:6.21 statute miles
10000(SCT) Scattered
2000(SCT) Scattered
SKMD 231300Z 00000KT 9999 6000S SCT020 SCT100 21/17 A3018 RMK HZ
MVFR 12:00:00 23-11-17
Altimeter:30.16 hg
Temp:19.0°c 66°f
Dew point:17.0°c 63°f
Wind:0 knots, 0 mph, 0 m/s,
Variable direction
Visibility:4.97 statute miles
10000(BKN) Broken
2000(SCT) Scattered
SKMD 231200Z 00000KT 8000 SCT020 BKN100 19/17 A3016 RMK HZ
VFR 11:00:00 23-11-17
Altimeter:30.14 hg
Temp:19.0°c 66°f
Dew point:17.0°c 63°f
Wind:0 knots, 0 mph, 0 m/s,
Variable direction
Visibility:6.21 statute miles
10000(BKN) Broken
2000(SCT) Scattered
SKMD 231100Z 00000KT 9999 5000S HZ SCT020 BKN100 19/17 A3014
TAF
No TAF for SKMD
Forecast at SKMD
No Forecast Reports for SKMD